Time;durP1;ratioP1;P1;durP2;ratioP2;P2;SDS_P1;SDS_P2;PMS_P1;PMS_P2;Temp;Humidity;BMP_temperature;BMP_pressure;BME280_temperature;BME280_humidity;BME280_pressure;Samples;Min_cycle;Max_cycle;Signal;HPM_P1;HPM_P2
2022/05/11 00:01:29;;;;;;;2.53;2.17;;;;;;;14.73;66.06;99805.94;5034589;28;20209;-65
2022/05/11 00:03:56;;;;;;;2.30;2.20;;;;;;;14.69;65.37;99798.41;5027200;28;20206;-65
2022/05/11 00:06:23;;;;;;;2.70;2.50;;;;;;;14.66;65.33;99794.22;5033508;28;20275;-65
2022/05/11 00:09:23;;;;;;;2.83;2.17;;;;;;;14.63;65.11;99796.91;5034652;28;20209;-65
2022/05/11 00:11:50;;;;;;;2.30;2.20;;;;;;;14.52;65.46;99783.59;5019972;28;20721;-65
2022/05/11 00:14:17;;;;;;;3.00;2.77;;;;;;;14.39;65.42;99766.91;5025298;28;20213;-65
2022/05/11 00:16:44;;;;;;;3.93;2.27;;;;;;;14.52;65.34;99791.31;5034054;28;20202;-65
2022/05/11 00:19:11;;;;;;;2.30;2.07;;;;;;;14.50;65.47;99782.81;5034192;28;20229;-66
2022/05/11 00:21:38;;;;;;;2.30;2.20;;;;;;;14.44;65.76;99782.22;5033991;28;20217;-64
2022/05/11 00:24:06;;;;;;;3.37;2.20;;;;;;;14.37;65.83;99781.63;5034143;28;20229;-64
2022/05/11 00:26:34;;;;;;;2.67;2.57;;;;;;;14.41;66.87;99788.31;5034083;28;20210;-65
2022/05/11 00:29:01;;;;;;;2.20;2.10;;;;;;;14.38;66.39;99797.94;5034047;28;20205;-65
2022/05/11 00:31:28;;;;;;;2.30;2.20;;;;;;;14.33;66.81;99785.22;5033926;28;20220;-65
2022/05/11 00:33:55;;;;;;;2.77;2.33;;;;;;;14.26;66.74;99777.75;5033665;28;20216;-64
2022/05/11 00:36:22;;;;;;;5.17;2.40;;;;;;;14.29;67.49;99793.94;5033809;28;20205;-66
2022/05/11 00:38:49;;;;;;;3.63;2.60;;;;;;;14.24;68.08;99803.59;5033594;28;20221;-66
2022/05/11 00:41:16;;;;;;;2.50;2.30;;;;;;;14.19;67.63;99802.94;5033725;28;20208;-66
2022/05/11 00:43:52;;;;;;;2.13;2.03;;;;;;;14.12;67.69;99806.63;5033609;28;20201;-65
2022/05/11 00:46:27;;;;;;;2.40;2.30;;;;;;;13.95;67.38;99783.25;5033696;28;20758;-67
2022/05/11 00:51:45;;;;;;;2.80;2.60;;;;;;;13.91;68.98;99797.97;5033663;28;20681;-66
2022/05/11 00:54:15;;;;;;;2.07;1.97;;;;;;;13.83;69.92;99801.75;5033327;28;20209;-65
2022/05/11 00:56:48;;;;;;;3.03;2.50;;;;;;;13.80;70.45;99801.84;5033391;28;20206;-65
2022/05/11 00:59:20;;;;;;;2.40;2.30;;;;;;;13.73;71.91;99797.84;5023629;28;20198;-65
2022/05/11 01:01:48;;;;;;;3.10;2.60;;;;;;;13.67;72.67;99792.00;5032955;28;20669;-66
2022/05/11 01:04:18;;;;;;;2.20;2.10;;;;;;;13.66;73.40;99798.06;5033314;28;20216;-65
2022/05/11 01:06:45;;;;;;;2.20;2.10;;;;;;;13.65;74.09;99793.78;5031668;28;20205;-65
2022/05/11 01:09:13;;;;;;;2.20;2.10;;;;;;;13.64;74.85;99794.69;5013567;28;20217;-66
2022/05/11 01:11:45;;;;;;;2.67;2.40;;;;;;;13.64;76.20;99794.69;5013321;28;20209;-65
2022/05/11 01:14:15;;;;;;;2.23;2.13;;;;;;;13.60;76.21;99787.94;5013273;28;20279;-65
2022/05/11 01:16:44;;;;;;;3.10;2.47;;;;;;;13.57;76.63;99793.22;5013272;28;20229;-65
2022/05/11 01:19:19;;;;;;;2.37;2.27;;;;;;;13.53;76.75;99781.38;5013409;28;20248;-65
2022/05/11 01:21:51;;;;;;;2.63;2.43;;;;;;;13.47;77.03;99786.72;5013545;28;20213;-65
2022/05/11 01:24:31;;;;;;;2.07;1.97;;;;;;;13.45;77.49;99779.94;5013068;28;20209;-64
2022/05/11 01:26:58;;;;;;;2.00;1.90;;;;;;;13.37;77.85;99785.38;5013125;28;20217;-66
2022/05/11 01:29:25;;;;;;;2.90;2.33;;;;;;;13.35;78.50;99781.16;5013031;28;20225;-64
2022/05/11 01:31:52;;;;;;;2.33;2.20;;;;;;;13.28;78.92;99779.72;5013188;28;20206;-64
2022/05/11 01:34:23;;;;;;;9.27;2.13;;;;;;;13.27;79.29;99776.28;5030600;28;20217;-65
2022/05/11 01:36:55;;;;;;;2.73;2.20;;;;;;;13.26;79.66;99771.19;5032664;28;20208;-65
2022/05/11 01:39:22;;;;;;;11.60;2.70;;;;;;;13.22;79.76;99778.16;5032424;28;20210;-66
2022/05/11 01:41:54;;;;;;;3.63;2.63;;;;;;;13.22;79.69;99780.75;5032517;28;20212;-65
2022/05/11 01:44:23;;;;;;;3.97;2.50;;;;;;;13.07;79.41;99776.09;5018906;28;20590;-65
2022/05/11 01:46:57;;;;;;;3.53;2.10;;;;;;;13.11;79.32;99788.00;5012843;28;20206;-64
2022/05/11 01:49:24;;;;;;;4.80;2.20;;;;;;;13.10;79.75;99791.47;5012580;28;20237;-64
2022/05/11 01:51:51;;;;;;;2.40;2.30;;;;;;;13.09;79.64;99789.78;5017246;28;20211;-66
2022/05/11 01:54:18;;;;;;;6.40;2.27;;;;;;;13.06;80.09;99792.44;5018594;28;20307;-65
2022/05/11 01:56:45;;;;;;;2.40;2.30;;;;;;;13.03;79.68;99795.94;5012767;28;20210;-65
2022/05/11 01:59:13;;;;;;;1.60;1.60;;;;;;;13.00;79.73;99795.22;5012524;28;20213;-65
2022/05/11 02:01:41;;;;;;;1.70;1.70;;;;;;;12.97;80.18;99787.59;5012418;28;20697;-65
2022/05/11 02:07:49;;;;;;;2.10;2.00;;;;;;;12.95;79.10;99791.97;5012619;28;20206;-65
2022/05/11 02:09:41;;;;;;;2.27;2.17;;;;;;;12.86;78.10;99800.00;5012630;28;20257;-65
2022/05/11 02:12:10;;;;;;;2.37;2.27;;;;;;;12.85;78.43;99806.03;5011608;28;20218;-65
2022/05/11 02:14:39;;;;;;;2.30;2.20;;;;;;;12.80;78.07;99798.44;5012205;28;20217;-64
2022/05/11 02:17:06;;;;;;;2.13;2.03;;;;;;;12.71;78.28;99782.47;5012283;28;20253;-65
2022/05/11 02:19:33;;;;;;;2.20;2.10;;;;;;;12.73;78.37;99789.25;5012145;28;20205;-65
2022/05/11 02:22:00;;;;;;;2.80;2.60;;;;;;;12.71;78.52;99787.63;5012169;28;20212;-65
2022/05/11 02:24:27;;;;;;;2.00;1.90;;;;;;;12.56;78.83;99769.25;5012250;28;20697;-65
2022/05/11 02:26:54;;;;;;;1.87;1.77;;;;;;;12.63;78.65;99796.41;5012241;28;20598;-65
2022/05/11 02:29:21;;;;;;;2.10;2.00;;;;;;;12.59;78.84;99794.00;5022460;28;20212;-65
2022/05/11 02:31:50;;;;;;;2.10;2.00;;;;;;;12.58;78.74;99790.59;5017596;28;20210;-65
2022/05/11 02:36:57;;;;;;;4.97;2.37;;;;;;;12.59;79.00;99776.84;5011405;28;20760;-65
2022/05/11 02:39:24;;;;;;;2.30;2.10;;;;;;;12.60;78.78;99781.09;5012666;28;20202;-65
2022/05/11 02:41:52;;;;;;;1.87;1.77;;;;;;;12.57;78.73;99783.75;5031540;28;20206;-66
2022/05/11 02:44:18;;;;;;;2.20;2.10;;;;;;;12.56;78.84;99779.53;5031593;28;20215;-66
2022/05/11 02:46:45;;;;;;;2.30;2.20;;;;;;;12.55;78.19;99782.97;5031677;28;20587;-65
2022/05/11 02:49:13;;;;;;;1.70;1.70;;;;;;;12.49;78.53;99777.19;5031769;28;20205;-66
2022/05/11 02:51:40;;;;;;;3.13;1.90;;;;;;;12.54;78.41;99785.59;5031684;28;20224;-65
2022/05/11 02:54:07;;;;;;;2.00;1.90;;;;;;;12.53;78.84;99789.91;5025840;28;20217;-64
2022/05/11 02:56:34;;;;;;;2.03;1.93;;;;;;;12.47;78.96;99787.50;5026263;28;20212;-64
2022/05/11 02:59:09;;;;;;;2.40;2.30;;;;;;;12.28;79.14;99768.41;5025996;28;20260;-65
2022/05/11 03:01:36;;;;;;;2.50;2.40;;;;;;;12.31;78.73;99773.44;5017981;28;20718;-65
2022/05/11 03:04:03;;;;;;;2.63;2.53;;;;;;;12.40;79.06;99792.91;5019045;28;20213;-64
2022/05/11 03:06:31;;;;;;;2.67;2.47;;;;;;;12.35;79.20;99787.91;5011672;28;20210;-66
2022/05/11 03:08:58;;;;;;;2.70;2.50;;;;;;;12.33;79.43;99776.00;5011766;28;20221;-65
2022/05/11 03:11:25;;;;;;;2.20;2.10;;;;;;;12.32;79.03;99780.28;5011684;28;20206;-65
2022/05/11 03:13:52;;;;;;;4.87;2.30;;;;;;;12.29;79.29;99785.53;5027288;28;20217;-65
2022/05/11 03:16:19;;;;;;;2.20;2.10;;;;;;;12.23;79.28;99780.56;5031285;28;20209;-63
2022/05/11 03:18:46;;;;;;;2.30;2.10;;;;;;;12.27;79.36;99792.44;5031455;28;20582;-65
2022/05/11 03:21:13;;;;;;;2.27;2.17;;;;;;;12.27;79.86;99791.59;5031385;28;20213;-65
2022/05/11 03:23:42;;;;;;;2.60;2.40;;;;;;;12.24;79.52;99795.13;5032066;28;20205;-66
2022/05/11 03:26:11;;;;;;;4.67;2.87;;;;;;;12.21;79.95;99792.66;5027678;28;20252;-65
2022/05/11 03:28:38;;;;;;;2.57;2.40;;;;;;;12.19;79.86;99801.25;5015157;28;20206;-65
2022/05/11 03:31:05;;;;;;;2.60;2.50;;;;;;;12.17;79.65;99814.19;5017171;28;20217;-65
2022/05/11 03:36:16;;;;;;;3.43;2.60;;;;;;;12.16;80.53;99819.34;5015605;28;20272;-65
2022/05/11 03:38:44;;;;;;;2.57;2.47;;;;;;;12.00;80.64;99793.28;5014960;28;20229;-66
2022/05/11 03:41:11;;;;;;;2.77;2.00;;;;;;;12.21;80.65;99818.34;5033992;28;20201;-65
2022/05/11 03:43:38;;;;;;;4.20;2.43;;;;;;;12.25;80.45;99814.78;5020249;28;20202;-66
2022/05/11 03:46:04;;;;;;;2.20;2.10;;;;;;;12.24;79.60;99797.69;5015284;28;20674;-65
2022/05/11 03:48:31;;;;;;;2.47;2.10;;;;;;;12.39;79.81;99807.50;5014979;28;20670;-65
2022/05/11 03:50:58;;;;;;;2.70;2.50;;;;;;;12.34;80.05;99806.78;5014799;28;20202;-65
2022/05/11 03:53:25;;;;;;;2.93;2.67;;;;;;;12.35;79.93;99813.63;5014842;28;20221;-65
2022/05/11 03:55:54;;;;;;;3.43;3.30;;;;;;;12.31;80.41;99804.31;5014772;28;20721;-65
2022/05/11 03:58:21;;;;;;;3.23;3.03;;;;;;;12.47;80.11;99818.38;5014941;28;20208;-65
2022/05/11 04:00:47;;;;;;;3.10;2.90;;;;;;;12.60;79.72;99817.09;5014752;28;20217;-65
2022/05/11 04:03:14;;;;;;;3.00;2.90;;;;;;;12.74;79.58;99813.25;5014707;28;20202;-65
2022/05/11 04:05:41;;;;;;;2.93;2.77;;;;;;;12.91;78.79;99819.53;5014745;28;20213;-65
2022/05/11 04:08:09;;;;;;;3.00;2.83;;;;;;;13.10;77.79;99817.22;5014439;28;20221;-65
2022/05/11 04:10:36;;;;;;;3.63;3.40;;;;;;;13.29;76.84;99818.28;5014519;28;20213;-65
2022/05/11 04:13:05;;;;;;;3.20;3.00;;;;;;;13.44;77.14;99812.56;5014338;28;20226;-65
2022/05/11 04:15:32;;;;;;;3.13;3.03;;;;;;;13.59;76.57;99812.06;5014878;28;20206;-65
2022/05/11 04:17:59;;;;;;;3.17;2.73;;;;;;;13.77;76.14;99820.00;5014368;28;20589;-64
2022/05/11 04:20:27;;;;;;;3.37;3.07;;;;;;;13.99;75.67;99828.63;5014592;28;20264;-65
2022/05/11 04:22:55;;;;;;;5.67;3.70;;;;;;;14.07;75.62;99829.19;5014662;28;20209;-64
2022/05/11 04:25:23;;;;;;;3.07;2.97;;;;;;;14.22;76.36;99833.75;5014578;28;20216;-65
2022/05/11 04:27:50;;;;;;;4.70;3.80;;;;;;;14.47;76.35;99839.69;5014799;28;20240;-65
2022/05/11 04:30:20;;;;;;;3.67;3.37;;;;;;;14.69;74.71;99840.53;5014109;28;20209;-65
2022/05/11 04:32:47;;;;;;;4.23;3.93;;;;;;;14.92;74.70;99846.50;5013999;28;20205;-65
2022/05/11 04:35:14;;;;;;;3.73;3.43;;;;;;;15.19;73.64;99840.19;5013076;28;20213;-65
2022/05/11 04:37:41;;;;;;;3.50;3.30;;;;;;;15.41;73.30;99846.13;5014123;28;20231;-65
2022/05/11 04:40:11;;;;;;;7.80;2.97;;;;;;;15.63;73.01;99849.53;5014135;28;20611;-65
2022/05/11 04:42:38;;;;;;;3.77;3.47;;;;;;;15.90;71.69;99847.44;5013960;28;20269;-65
2022/05/11 04:45:06;;;;;;;4.00;3.73;;;;;;;16.06;69.93;99837.25;5014010;28;20213;-64
2022/05/11 04:47:34;;;;;;;3.60;3.30;;;;;;;16.30;69.64;99849.06;5013962;28;20230;-65
2022/05/11 04:50:01;;;;;;;2.90;2.80;;;;;;;16.47;69.93;99851.72;5013859;28;20210;-65
2022/05/11 04:52:27;;;;;;;3.00;2.90;;;;;;;16.62;68.46;99851.00;5013677;28;20206;-65
2022/05/11 04:54:54;;;;;;;3.07;2.97;;;;;;;16.75;67.16;99841.75;5013674;28;20698;-66
2022/05/11 04:57:21;;;;;;;3.20;3.07;;;;;;;16.94;67.65;99848.63;5028769;28;20232;-66
2022/05/11 04:59:50;;;;;;;3.50;3.20;;;;;;;17.10;67.63;99844.34;5033703;28;20206;-66
2022/05/11 05:02:19;;;;;;;2.83;2.60;;;;;;;17.23;65.88;99845.41;5033200;28;20208;-66
2022/05/11 05:04:48;;;;;;;3.33;3.13;;;;;;;17.50;66.14;99851.81;5033419;28;20205;-65
2022/05/11 05:07:15;;;;;;;2.87;2.73;;;;;;;17.80;66.10;99849.41;5033261;28;20666;-65
2022/05/11 05:09:42;;;;;;;3.07;2.60;;;;;;;18.07;62.86;99853.13;5024494;28;20209;-65
2022/05/11 05:12:11;;;;;;;3.57;3.03;;;;;;;18.25;63.21;99851.31;5019023;28;20702;-65
2022/05/11 05:14:38;;;;;;;17.13;3.83;;;;;;;18.48;64.10;99847.47;5032882;28;20224;-65
2022/05/11 05:17:07;;;;;;;3.90;2.60;;;;;;;18.64;60.36;99853.50;5033044;28;20201;-65
2022/05/11 05:19:34;;;;;;;2.57;2.47;;;;;;;18.88;60.84;99858.16;5026674;28;20197;-60
2022/05/11 05:22:03;;;;;;;2.50;2.30;;;;;;;19.15;60.06;99854.91;5015594;28;20224;-61
2022/05/11 05:24:30;;;;;;;2.33;2.23;;;;;;;19.36;58.64;99851.88;5019497;28;20206;-61
2022/05/11 05:26:57;;;;;;;2.73;2.20;;;;;;;19.56;55.40;99860.28;5022443;28;20256;-61
2022/05/11 05:32:09;;;;;;;2.13;2.03;;;;;;;20.04;54.51;99862.53;5023490;28;20228;-62
2022/05/11 05:34:36;;;;;;;2.20;2.00;;;;;;;20.30;55.99;99869.59;5022015;28;20220;-62
2022/05/11 05:37:04;;;;;;;2.10;2.00;;;;;;;20.61;55.32;99868.50;5018135;28;20205;-60
2022/05/11 05:39:31;;;;;;;2.43;2.20;;;;;;;20.71;52.28;99864.34;5018339;28;20209;-62
2022/05/11 05:41:58;;;;;;;2.33;2.23;;;;;;;20.76;52.21;99867.50;5014232;28;20209;-63
2022/05/11 05:44:29;;;;;;;2.37;2.17;;;;;;;20.86;55.33;99867.75;5022694;28;20221;-62
2022/05/11 05:46:57;;;;;;;2.30;2.20;;;;;;;20.94;52.59;99876.72;5020856;28;20242;-63
2022/05/11 05:49:23;;;;;;;2.50;2.20;;;;;;;21.10;53.51;99873.97;5017858;28;20290;-62
2022/05/11 05:51:50;;;;;;;2.10;2.00;;;;;;;21.26;50.05;99868.63;5018138;28;20713;-62
2022/05/11 05:54:18;;;;;;;2.80;2.10;;;;;;;21.12;50.40;99859.09;5020185;28;20214;-61
2022/05/11 05:56:45;;;;;;;1.83;1.73;;;;;;;21.05;49.93;99872.59;5019115;28;20214;-61
2022/05/11 05:59:14;;;;;;;1.77;1.67;;;;;;;20.97;51.45;99873.06;5018103;28;20211;-60
2022/05/11 06:01:41;;;;;;;2.57;2.47;;;;;;;20.79;52.45;99876.91;5015275;28;20210;-60
2022/05/11 06:04:08;;;;;;;1.90;1.80;;;;;;;20.69;52.75;99881.84;5018168;28;20220;-61
2022/05/11 06:06:34;;;;;;;1.77;1.77;;;;;;;20.53;52.70;99883.75;5018627;28;20221;-61
2022/05/11 06:09:01;;;;;;;2.23;2.13;;;;;;;20.45;53.14;99878.22;5013874;28;20204;-61
2022/05/11 06:11:31;;;;;;;2.43;1.97;;;;;;;20.33;54.31;99878.97;5021983;28;20205;-60
2022/05/11 06:13:59;;;;;;;1.57;1.57;;;;;;;20.13;54.72;99879.34;5021928;28;20641;-63
2022/05/11 06:16:26;;;;;;;1.67;1.57;;;;;;;20.01;55.42;99878.31;5017260;28;20662;-61
2022/05/11 06:18:53;;;;;;;1.40;1.30;;;;;;;19.83;55.44;99875.09;5016063;28;20212;-63
2022/05/11 06:21:20;;;;;;;2.37;1.90;;;;;;;19.63;56.05;99872.84;5019043;28;20609;-63
2022/05/11 06:23:47;;;;;;;1.50;1.40;;;;;;;19.61;55.77;99882.47;5016961;28;20221;-62
2022/05/11 06:26:16;;;;;;;2.30;2.10;;;;;;;19.62;56.59;99876.38;5017632;28;20207;-62
2022/05/11 06:28:46;;;;;;;1.77;1.67;;;;;;;19.70;57.59;99884.56;5017891;28;20198;-62
2022/05/11 06:31:14;;;;;;;1.60;1.60;;;;;;;19.78;57.26;99881.47;5014914;28;20210;-61
2022/05/11 06:33:41;;;;;;;4.03;1.57;;;;;;;19.77;58.28;99885.03;5016436;28;20574;-60
2022/05/11 06:36:09;;;;;;;2.87;1.50;;;;;;;19.86;57.49;99880.09;5007929;28;20202;-60
2022/05/11 06:38:37;;;;;;;2.40;2.00;;;;;;;19.90;56.65;99880.75;5018930;28;20255;-62
2022/05/11 06:41:08;;;;;;;2.67;2.47;;;;;;;20.33;55.42;99884.19;5019816;28;20229;-61
2022/05/11 06:43:35;;;;;;;2.90;1.67;;;;;;;20.53;54.44;99881.16;5019481;28;20221;-62
2022/05/11 06:46:04;;;;;;;2.40;1.80;;;;;;;20.81;52.81;99878.47;5015577;28;20205;-61
2022/05/11 06:48:31;;;;;;;1.83;1.83;;;;;;;21.19;53.95;99872.56;5016842;28;20209;-61
2022/05/11 06:50:58;;;;;;;1.90;1.80;;;;;;;21.58;51.21;99877.72;5018407;28;20769;-61
2022/05/11 06:53:25;;;;;;;2.00;1.90;;;;;;;21.70;48.88;99879.50;5017784;28;20240;-61
2022/05/11 07:01:22;;;;;;;4.33;1.30;;;;;;;22.32;44.42;99874.31;5028565;28;20211;-61
2022/05/11 07:03:49;;;;;;;3.60;1.80;;;;;;;22.49;45.84;99876.53;5022430;28;20210;-60
2022/05/11 07:06:16;;;;;;;1.93;1.83;;;;;;;22.58;44.57;99883.75;5023351;28;20218;-61
2022/05/11 07:08:45;;;;;;;1.70;1.60;;;;;;;22.55;45.95;99881.34;5021271;28;20216;-61
2022/05/11 07:13:58;;;;;;;1.60;1.50;;;;;;;23.01;44.64;99873.63;5021910;28;20605;-61
2022/05/11 07:16:28;;;;;;;2.57;1.60;;;;;;;23.09;43.49;99875.69;5019860;28;20212;-60
2022/05/11 07:18:54;;;;;;;4.43;2.00;;;;;;;23.11;45.19;99876.41;5029503;28;20732;-61
2022/05/11 07:21:21;;;;;;;1.20;1.20;;;;;;;23.41;43.57;99871.53;5028818;28;20198;-60
2022/05/11 07:23:48;;;;;;;2.57;1.53;;;;;;;23.66;44.74;99873.09;5023905;28;20201;-61
2022/05/11 07:26:15;;;;;;;1.83;1.73;;;;;;;23.78;43.14;99875.63;5027707;28;20201;-61
2022/05/11 07:28:42;;;;;;;1.70;1.70;;;;;;;23.71;42.76;99874.44;5024878;28;20554;-61
2022/05/11 07:31:09;;;;;;;2.20;2.00;;;;;;;23.76;46.26;99872.28;5028373;28;20208;-61
2022/05/11 07:33:38;;;;;;;1.87;1.77;;;;;;;23.95;44.88;99872.53;5022175;28;20208;-61
2022/05/11 07:36:05;;;;;;;3.87;1.53;;;;;;;23.95;42.29;99874.31;5023052;28;20217;-62
2022/05/11 07:38:37;;;;;;;1.70;1.60;;;;;;;23.94;42.27;99855.16;5019101;28;20224;-61
2022/05/11 07:41:05;;;;;;;2.67;1.50;;;;;;;24.10;43.80;99861.81;5020285;28;20574;-61
2022/05/11 07:43:32;;;;;;;3.17;1.87;;;;;;;24.39;44.47;99860.38;5027998;28;20206;-61
2022/05/11 07:46:00;;;;;;;1.53;1.50;;;;;;;24.26;37.52;99871.00;5023831;28;20583;-62
2022/05/11 07:48:27;;;;;;;1.50;1.47;;;;;;;24.45;41.60;99860.72;5028376;28;20203;-63
2022/05/11 07:51:03;;;;;;;1.60;1.50;;;;;;;24.61;39.80;99854.25;5026044;28;20677;-61
2022/05/11 07:53:32;;;;;;;1.57;1.47;;;;;;;24.73;37.92;99854.09;5026497;28;20288;-61
2022/05/11 08:01:25;;;;;;;1.87;1.30;;;;;;;25.12;40.96;99846.53;5026010;28;20200;-62
2022/05/11 08:03:52;;;;;;;1.50;1.40;;;;;;;25.14;40.77;99810.53;5022250;28;20278;-61
2022/05/11 08:06:21;;;;;;;1.87;1.77;;;;;;;25.25;38.73;99845.41;5022861;28;20205;-61
2022/05/11 08:08:48;;;;;;;1.60;1.50;;;;;;;25.40;41.28;99848.53;5018201;28;20666;-60
2022/05/11 08:11:15;;;;;;;8.80;2.10;;;;;;;25.70;40.25;99845.97;5022894;28;20200;-61
2022/05/11 08:13:42;;;;;;;1.57;1.47;;;;;;;25.90;41.42;99839.84;5026021;28;20257;-61
2022/05/11 08:16:09;;;;;;;2.27;1.30;;;;;;;25.92;37.06;99843.16;5030311;28;20218;-60
2022/05/11 08:18:36;;;;;;;0.93;0.93;;;;;;;25.84;33.68;99848.25;5025924;28;20208;-61
2022/05/11 08:21:03;;;;;;;1.07;1.07;;;;;;;25.93;34.86;99842.19;5020271;28;20285;-61
2022/05/11 08:23:33;;;;;;;1.10;1.10;;;;;;;26.05;33.74;99832.41;5016840;28;20221;-61
2022/05/11 08:26:00;;;;;;;1.53;1.10;;;;;;;26.35;34.00;99836.81;5021132;28;20725;-60
2022/05/11 08:28:27;;;;;;;2.83;1.40;;;;;;;25.97;31.88;99840.13;5018687;28;20677;-61
2022/05/11 08:33:41;;;;;;;1.40;1.40;;;;;;;26.33;35.29;99826.44;5024993;28;20300;-60
2022/05/11 08:36:10;;;;;;;1.23;1.23;;;;;;;26.45;35.28;99827.13;5018636;28;20218;-60
2022/05/11 08:38:42;;;;;;;5.47;1.30;;;;;;;26.50;35.74;99824.91;5018992;28;20208;-61
2022/05/11 08:41:16;;;;;;;1.70;1.60;;;;;;;26.29;35.22;99821.56;5026781;28;20207;-62
2022/05/11 08:43:44;;;;;;;2.40;1.40;;;;;;;26.37;35.74;99830.44;5024255;28;20685;-61
2022/05/11 08:46:21;;;;;;;1.33;1.33;;;;;;;26.43;35.77;99823.81;5022713;28;20197;-60
2022/05/11 08:48:56;;;;;;;1.93;1.87;;;;;;;26.68;34.65;99825.06;5023540;28;20201;-61
2022/05/11 08:51:43;;;;;;;1.53;1.43;;;;;;;26.86;34.78;99823.44;5019583;28;20629;-62
2022/05/11 08:54:19;;;;;;;1.77;1.10;;;;;;;26.77;33.70;99819.81;5028631;28;20220;-62
2022/05/11 08:56:49;;;;;;;1.50;1.40;;;;;;;26.66;34.72;99825.19;5028231;28;20204;-62
2022/05/11 08:59:21;;;;;;;1.60;1.50;;;;;;;26.89;33.46;99821.34;5020719;28;20225;-61
2022/05/11 09:01:51;;;;;;;1.30;1.20;;;;;;;27.04;33.16;99819.94;5021680;28;21669;-63
2022/05/11 09:04:23;;;;;;;12.27;2.60;;;;;;;27.06;33.96;99819.81;5021556;28;20201;-62
2022/05/11 09:06:50;;;;;;;2.03;1.73;;;;;;;27.36;32.16;99824.06;5020074;28;20722;-62
2022/05/11 09:09:19;;;;;;;1.70;1.63;;;;;;;27.42;32.82;99828.75;5020678;28;20632;-62
2022/05/11 09:11:51;;;;;;;3.33;2.20;;;;;;;27.50;31.75;99826.25;5022102;28;20209;-62
2022/05/11 09:14:24;;;;;;;1.70;1.60;;;;;;;27.62;32.08;99825.13;5019560;28;20666;-63
2022/05/11 09:16:52;;;;;;;2.03;1.93;;;;;;;27.86;30.94;99822.78;5016876;28;20713;-62
2022/05/11 09:19:22;;;;;;;2.13;1.70;;;;;;;28.14;31.49;99824.47;5023620;28;20212;-63
2022/05/11 09:21:52;;;;;;;3.40;1.53;;;;;;;28.27;31.09;99821.50;5018525;28;20583;-62
2022/05/11 09:24:29;;;;;;;1.63;1.53;;;;;;;28.19;28.40;99825.84;5015522;28;20206;-62
2022/05/11 09:27:11;;;;;;;2.30;2.00;;;;;;;28.32;29.85;99823.69;5021209;28;20608;-62
2022/05/11 09:29:41;;;;;;;1.80;1.70;;;;;;;28.23;30.32;99814.88;5018652;28;20238;-63
2022/05/11 09:32:29;;;;;;;1.33;1.33;;;;;;;27.86;30.49;99814.88;5015414;28;20637;-62
2022/05/11 09:35:17;;;;;;;1.50;1.40;;;;;;;27.66;29.37;99810.66;5013162;28;20228;-62
2022/05/11 09:37:45;;;;;;;1.90;1.80;;;;;;;27.51;34.93;99812.13;5023512;28;20193;-62
2022/05/11 09:40:20;;;;;;;1.73;1.50;;;;;;;27.54;29.79;99814.47;5017639;28;20764;-62
2022/05/11 09:42:52;;;;;;;1.47;1.37;;;;;;;27.86;31.05;99806.97;5021101;28;20208;-62
2022/05/11 09:45:42;;;;;;;2.33;2.20;;;;;;;27.92;30.93;99802.94;5025341;28;20196;-63
2022/05/11 09:48:31;;;;;;;1.80;1.70;;;;;;;27.97;29.94;99811.25;5019959;28;20202;-63
2022/05/11 09:51:19;;;;;;;4.10;1.70;;;;;;;27.84;32.60;99808.94;5022542;28;20288;-63
2022/05/11 09:53:52;;;;;;;6.27;2.87;;;;;;;27.98;30.89;99805.81;5025548;28;20194;-63
2022/05/11 09:56:25;;;;;;;2.20;2.10;;;;;;;28.25;30.72;99796.25;5017225;28;20241;-63
2022/05/11 09:58:52;;;;;;;3.77;3.47;;;;;;;28.27;30.28;99794.31;5019199;28;20720;-62
2022/05/11 10:01:26;;;;;;;2.27;1.90;;;;;;;28.35;35.04;99792.56;5020121;28;20216;-62
2022/05/11 10:03:58;;;;;;;2.43;2.33;;;;;;;28.52;31.86;99790.91;5015861;28;20196;-63
2022/05/11 10:06:27;;;;;;;2.03;1.67;;;;;;;28.60;31.83;99793.63;5023275;28;20205;-62
2022/05/11 10:08:55;;;;;;;4.00;3.67;;;;;;;28.66;30.60;99796.50;5022581;28;20206;-62
2022/05/11 10:11:26;;;;;;;2.30;2.20;;;;;;;28.75;29.50;99792.16;5023914;28;20209;-63
2022/05/11 10:14:00;;;;;;;4.53;1.80;;;;;;;28.59;29.39;99797.25;5025018;28;20293;-62
2022/05/11 10:22:22;;;;;;;2.10;2.00;;;;;;;27.98;30.40;99784.72;5016792;28;20201;-63
2022/05/11 10:25:14;;;;;;;1.40;1.40;;;;;;;27.96;29.85;99786.69;5019466;28;20206;-62
2022/05/11 10:27:46;;;;;;;3.23;2.40;;;;;;;28.05;30.02;99791.09;5017712;28;20553;-62
2022/05/11 10:30:25;;;;;;;2.00;1.90;;;;;;;28.09;30.22;99768.75;5022231;28;20212;-63
2022/05/11 10:33:20;;;;;;;1.90;1.80;;;;;;;28.35;31.51;99779.38;5021762;28;20195;-63
2022/05/11 10:36:00;;;;;;;1.53;1.53;;;;;;;28.42;33.10;99771.69;5017107;28;20220;-62
2022/05/11 10:38:39;;;;;;;1.73;1.63;;;;;;;27.76;31.58;99769.31;5016645;28;20204;-61
2022/05/11 10:41:15;;;;;;;1.77;1.67;;;;;;;27.47;31.19;99766.81;5017035;28;20543;-61
2022/05/11 10:43:56;;;;;;;3.13;1.73;;;;;;;27.73;31.59;99772.25;5017403;28;20717;-61
2022/05/11 10:46:29;;;;;;;1.97;1.87;;;;;;;27.61;30.79;99768.97;5014941;28;20647;-61
2022/05/11 10:49:14;;;;;;;1.77;1.67;;;;;;;27.87;31.83;99761.22;5011401;28;20692;-61
2022/05/11 10:51:54;;;;;;;1.63;1.63;;;;;;;27.90;32.24;99755.66;5019777;28;21604;-61
2022/05/11 10:54:30;;;;;;;1.80;1.70;;;;;;;28.05;32.66;99753.31;5021104;28;20211;-62
2022/05/11 10:57:08;;;;;;;4.37;1.67;;;;;;;27.88;31.41;99747.06;5018273;28;20713;-60
2022/05/11 10:59:58;;;;;;;1.80;1.70;;;;;;;27.58;30.88;99740.28;5017180;28;20227;-61
2022/05/11 11:03:00;;;;;;;2.50;1.67;;;;;;;27.54;31.85;99746.00;5012455;28;20201;-62
2022/05/11 11:05:32;;;;;;;1.97;1.87;;;;;;;27.64;31.76;99747.59;4996468;28;20200;-61
2022/05/11 11:08:09;;;;;;;3.27;2.27;;;;;;;27.66;31.37;99736.91;5013204;28;20212;-61
2022/05/11 11:10:43;;;;;;;2.03;1.87;;;;;;;27.83;30.52;99738.75;5020094;28;20211;-61
2022/05/11 11:13:31;;;;;;;1.90;1.80;;;;;;;27.84;30.98;99743.06;5019682;28;20645;-62
2022/05/11 11:16:02;;;;;;;1.87;1.73;;;;;;;27.86;31.36;99738.47;5015032;28;20228;-61
2022/05/11 11:18:32;;;;;;;2.20;1.93;;;;;;;27.79;31.12;99739.22;5022735;28;20234;-61
2022/05/11 11:21:02;;;;;;;1.80;1.70;;;;;;;27.79;30.17;99715.50;5013343;28;20206;-61
2022/05/11 11:23:35;;;;;;;1.73;1.70;;;;;;;27.81;30.76;99735.47;5018017;28;20204;-62
2022/05/11 11:26:03;;;;;;;2.23;2.03;;;;;;;27.87;30.19;99745.41;5016161;28;20202;-61
2022/05/11 11:28:34;;;;;;;1.50;1.50;;;;;;;27.49;30.51;99740.34;5020725;28;20209;-62
2022/05/11 11:31:20;;;;;;;2.40;2.30;;;;;;;27.59;31.14;99741.13;5018438;28;20265;-61
2022/05/11 11:34:22;;;;;;;1.97;1.87;;;;;;;27.73;31.84;99730.09;5020421;28;20211;-62
2022/05/11 11:36:50;;;;;;;1.80;1.70;;;;;;;27.12;30.47;99706.91;4985478;28;20304;-61
2022/05/11 11:39:48;;;;;;;2.17;2.00;;;;;;;27.45;31.95;99738.97;5028031;28;20208;-61
2022/05/11 11:42:31;;;;;;;1.90;1.80;;;;;;;27.74;31.64;99738.81;5014920;28;20205;-62
2022/05/11 11:44:58;;;;;;;2.10;2.00;;;;;;;27.94;32.17;99725.41;5019077;28;20201;-63
2022/05/11 11:47:42;;;;;;;2.43;2.17;;;;;;;28.11;36.98;99716.69;5021725;28;20201;-61
2022/05/11 11:50:30;;;;;;;5.77;2.53;;;;;;;28.34;31.90;99718.88;5029454;28;20231;-62
2022/05/11 11:53:08;;;;;;;3.23;1.67;;;;;;;28.27;30.34;99720.47;5014115;28;20217;-62
2022/05/11 11:55:35;;;;;;;1.80;1.70;;;;;;;28.10;30.21;99722.97;5017408;28;20229;-61
2022/05/11 11:58:14;;;;;;;2.10;1.90;;;;;;;28.03;30.68;99708.69;5020984;28;20562;-62
2022/05/11 12:01:16;;;;;;;1.93;1.67;;;;;;;28.24;31.27;99707.59;5025077;28;20693;-62
2022/05/11 12:03:57;;;;;;;1.77;1.67;;;;;;;28.40;29.95;99698.00;4943936;29;20600;-62
2022/05/11 12:15:04;;;;;;;2.27;2.17;;;;;;;27.84;30.11;99700.91;5022940;28;20239;-57
2022/05/11 12:17:35;;;;;;;1.90;1.80;;;;;;;27.59;30.60;99698.97;5020064;28;20573;-56
2022/05/11 12:20:08;;;;;;;2.60;2.50;;;;;;;27.67;31.65;99680.63;5013630;28;20198;-56
2022/05/11 12:22:42;;;;;;;1.83;1.80;;;;;;;27.70;30.98;99690.88;5017547;28;20227;-57
2022/05/11 12:25:19;;;;;;;1.67;1.60;;;;;;;27.74;31.21;99684.31;5023620;28;20206;-57
2022/05/11 12:27:46;;;;;;;1.87;1.77;;;;;;;27.66;30.65;99684.22;5022729;28;20233;-56
2022/05/11 12:30:21;;;;;;;1.77;1.67;;;;;;;27.76;32.33;99663.91;5031918;28;20219;-56
2022/05/11 12:32:53;;;;;;;3.00;2.10;;;;;;;27.85;31.22;99684.09;5025853;28;20569;-57
2022/05/11 12:35:26;;;;;;;2.10;2.00;;;;;;;27.73;31.76;99682.66;5019078;28;20211;-56